Time;durP1;ratioP1;P1;durP2;ratioP2;P2;SDS_P1;SDS_P2;PMS_P1;PMS_P2;Temp;Humidity;BMP_temperature;BMP_pressure;BME280_temperature;BME280_humidity;BME280_pressure;Samples;Min_cycle;Max_cycle;Signal;HPM_P1;HPM_P2
2021/12/12 00:00:28;;;;;;;35.17;17.80;;;3.10;99.90;;;;;;5090466;28;20048;-67
2021/12/12 00:02:59;;;;;;;40.40;19.00;;;3.10;99.90;;;;;;5090623;28;20109;-68
2021/12/12 00:05:30;;;;;;;37.50;18.23;;;3.10;99.90;;;;;;5089506;28;20522;-67
2021/12/12 00:07:59;;;;;;;37.83;18.10;;;3.10;99.90;;;;;;5090888;28;20056;-67
2021/12/12 00:10:29;;;;;;;40.33;18.00;;;3.10;99.90;;;;;;5098247;28;20052;-68
2021/12/12 00:13:00;;;;;;;39.27;18.40;;;3.10;99.90;;;;;;5098782;28;20397;-68
2021/12/12 00:15:29;;;;;;;37.73;18.50;;;3.10;99.90;;;;;;5090873;28;20492;-68
2021/12/12 00:17:57;;;;;;;37.33;17.63;;;3.10;99.90;;;;;;5091027;28;20174;-69
2021/12/12 00:20:26;;;;;;;35.23;17.13;;;3.10;99.90;;;;;;5090283;28;20055;-68
2021/12/12 00:22:58;;;;;;;37.57;17.83;;;3.10;99.90;;;;;;5090062;28;20105;-67
2021/12/12 00:25:28;;;;;;;37.07;17.13;;;3.20;99.90;;;;;;5089603;28;20090;-67
2021/12/12 00:27:55;;;;;;;41.53;18.17;;;3.20;99.90;;;;;;5090129;28;20082;-68
2021/12/12 00:30:22;;;;;;;38.87;18.80;;;3.20;99.90;;;;;;5089983;28;20048;-68
2021/12/12 00:32:51;;;;;;;40.53;19.10;;;3.20;99.90;;;;;;5089845;28;20125;-69
2021/12/12 00:35:19;;;;;;;34.70;16.27;;;3.20;99.90;;;;;;5089834;28;20109;-69
2021/12/12 00:37:49;;;;;;;40.10;17.80;;;3.20;99.90;;;;;;5091616;28;20074;-67
2021/12/12 00:40:22;;;;;;;32.93;16.90;;;3.20;99.90;;;;;;5092175;28;20072;-67
2021/12/12 00:42:53;;;;;;;32.93;16.33;;;3.20;99.90;;;;;;5090927;28;20113;-68
2021/12/12 00:45:23;;;;;;;36.63;17.00;;;3.20;99.90;;;;;;5089763;28;20048;-68
2021/12/12 00:47:50;;;;;;;39.40;17.97;;;3.20;99.90;;;;;;5091868;28;20052;-68
2021/12/12 00:50:27;;;;;;;35.30;16.17;;;3.30;99.90;;;;;;5093952;28;20048;-68
2021/12/12 00:52:55;;;;;;;34.47;16.07;;;3.30;99.90;;;;;;5093856;28;20109;-68
2021/12/12 00:55:22;;;;;;;37.83;16.23;;;3.30;99.90;;;;;;5093357;28;20055;-68
2021/12/12 00:57:53;;;;;;;33.37;16.27;;;3.30;99.90;;;;;;5093460;28;20055;-69
2021/12/12 01:00:24;;;;;;;33.60;16.13;;;3.30;99.90;;;;;;5093302;28;20113;-67
2021/12/12 01:02:52;;;;;;;40.33;17.87;;;3.40;99.90;;;;;;5093359;28;20048;-68
2021/12/12 01:05:21;;;;;;;34.83;16.07;;;3.40;99.90;;;;;;5092431;28;20071;-67
2021/12/12 01:07:49;;;;;;;36.37;17.10;;;3.40;99.90;;;;;;5093736;28;20470;-68
2021/12/12 01:10:22;;;;;;;40.77;16.70;;;3.30;99.90;;;;;;5093010;28;20091;-69
2021/12/12 01:12:51;;;;;;;34.57;16.77;;;3.30;99.90;;;;;;5093527;28;20391;-68
2021/12/12 01:15:22;;;;;;;34.03;15.83;;;3.30;99.90;;;;;;5092696;28;20565;-67
2021/12/12 01:17:54;;;;;;;37.30;16.80;;;3.30;99.90;;;;;;5092927;28;20118;-68
2021/12/12 01:20:29;;;;;;;35.67;15.23;;;3.30;99.90;;;;;;5093331;28;20048;-68
2021/12/12 01:23:02;;;;;;;35.03;16.03;;;3.40;99.90;;;;;;5093045;28;20101;-68
2021/12/12 01:25:33;;;;;;;33.87;15.77;;;3.40;99.90;;;;;;5091994;28;20104;-67
2021/12/12 01:28:02;;;;;;;31.57;15.67;;;3.40;99.90;;;;;;5092864;28;20052;-68
2021/12/12 01:30:29;;;;;;;32.33;15.40;;;3.40;99.90;;;;;;5093238;28;20097;-68
2021/12/12 01:32:58;;;;;;;32.73;14.93;;;3.40;99.90;;;;;;5093088;28;20109;-68
2021/12/12 01:35:26;;;;;;;38.93;15.67;;;3.50;99.90;;;;;;5092006;28;20044;-68
2021/12/12 01:40:45;;;;;;;27.37;13.97;;;3.40;99.90;;;;;;5092508;28;20055;-67
2021/12/12 01:43:26;;;;;;;33.40;15.50;;;3.50;99.90;;;;;;5092660;28;20094;-68
2021/12/12 01:46:00;;;;;;;27.57;13.37;;;3.40;99.90;;;;;;5091899;28;20056;-68
2021/12/12 01:48:30;;;;;;;30.43;14.90;;;3.50;99.90;;;;;;5092768;28;20056;-68
2021/12/12 01:51:00;;;;;;;34.20;15.13;;;3.50;99.90;;;;;;5092466;28;20097;-68
2021/12/12 01:53:30;;;;;;;31.33;13.77;;;3.50;99.90;;;;;;5092959;28;20043;-68
2021/12/12 01:56:01;;;;;;;31.87;13.50;;;3.50;99.90;;;;;;5091825;28;20083;-68
2021/12/12 01:58:33;;;;;;;29.23;14.03;;;3.50;99.90;;;;;;5092016;28;20154;-67
2021/12/12 02:01:04;;;;;;;33.47;14.73;;;3.50;99.90;;;;;;5092222;28;20113;-68
2021/12/12 02:03:35;;;;;;;32.42;14.00;;;3.50;99.90;;;;;;5092592;28;20091;-67
2021/12/12 02:06:07;;;;;;;33.73;15.33;;;3.50;99.90;;;;;;5091763;28;20043;-68
2021/12/12 02:08:36;;;;;;;32.83;14.27;;;3.50;99.90;;;;;;5092117;28;20092;-68
2021/12/12 02:11:05;;;;;;;29.63;14.02;;;3.50;99.90;;;;;;5092158;28;20078;-68
2021/12/12 02:13:39;;;;;;;32.47;13.80;;;3.40;99.90;;;;;;5092170;28;20128;-68
2021/12/12 02:16:09;;;;;;;30.97;13.63;;;3.50;99.90;;;;;;5091560;28;20098;-67
2021/12/12 02:18:39;;;;;;;27.00;13.27;;;3.50;99.90;;;;;;5092106;28;20083;-68
2021/12/12 02:21:15;;;;;;;33.87;13.57;;;3.50;99.90;;;;;;5091975;28;20042;-67
2021/12/12 02:35:20;;;;;;;27.67;11.33;;;3.50;99.90;;;;;;5091021;28;20090;-68
2021/12/12 02:37:47;;;;;;;20.43;10.00;;;3.50;99.90;;;;;;5091514;28;20144;-68
2021/12/12 02:40:19;;;;;;;26.67;10.97;;;3.50;99.90;;;;;;5091477;28;20450;-67
2021/12/12 02:42:47;;;;;;;22.47;10.50;;;3.50;99.90;;;;;;5092120;28;20472;-67
2021/12/12 02:45:17;;;;;;;20.07;10.00;;;3.40;99.90;;;;;;5090779;28;20052;-68
2021/12/12 02:47:47;;;;;;;22.80;9.50;;;3.50;99.90;;;;;;5091230;28;20051;-68
2021/12/12 02:50:19;;;;;;;22.43;9.90;;;3.40;99.90;;;;;;5091440;28;20087;-68
2021/12/12 02:52:48;;;;;;;26.63;11.83;;;3.40;99.90;;;;;;5091679;28;20113;-69
2021/12/12 02:55:20;;;;;;;21.03;11.07;;;3.50;99.90;;;;;;5090433;28;20111;-68
2021/12/12 02:57:47;;;;;;;28.13;10.90;;;3.50;99.90;;;;;;5090692;28;20056;-67
2021/12/12 03:00:18;;;;;;;25.50;11.80;;;3.50;99.90;;;;;;5090879;28;20471;-68
2021/12/12 03:02:46;;;;;;;35.87;11.13;;;3.50;99.90;;;;;;5091474;28;20121;-68
2021/12/12 03:05:15;;;;;;;24.83;11.23;;;3.50;99.90;;;;;;5090433;28;20569;-67
2021/12/12 03:07:43;;;;;;;25.53;11.47;;;3.50;99.90;;;;;;5090747;28;20052;-68
2021/12/12 03:10:14;;;;;;;23.37;11.53;;;3.50;99.90;;;;;;5089957;28;20056;-68
2021/12/12 03:12:44;;;;;;;21.97;10.33;;;3.50;99.90;;;;;;5090769;28;20185;-69
2021/12/12 03:15:15;;;;;;;25.90;9.87;;;3.50;99.90;;;;;;5089616;28;20105;-68
2021/12/12 03:17:43;;;;;;;24.77;11.27;;;3.50;99.90;;;;;;5090345;28;20083;-68
2021/12/12 03:20:23;;;;;;;28.13;9.87;;;3.60;99.90;;;;;;5090695;28;20396;-68
2021/12/12 03:22:51;;;;;;;24.57;10.80;;;3.50;99.90;;;;;;5090601;28;20407;-69
2021/12/12 03:25:19;;;;;;;24.60;11.67;;;3.50;99.90;;;;;;5089874;28;20504;-68
2021/12/12 03:27:48;;;;;;;27.03;10.63;;;3.60;99.90;;;;;;5090506;28;20051;-68
2021/12/12 03:30:16;;;;;;;26.07;9.93;;;3.60;99.90;;;;;;5090549;28;20097;-68
2021/12/12 03:32:43;;;;;;;27.23;11.27;;;3.60;99.90;;;;;;5091050;28;20569;-69
2021/12/12 03:35:11;;;;;;;26.67;11.13;;;3.60;99.90;;;;;;5092524;28;20074;-68
2021/12/12 03:37:42;;;;;;;27.03;10.57;;;3.50;99.90;;;;;;5097892;28;20488;-69
2021/12/12 03:40:14;;;;;;;29.90;11.03;;;3.50;99.90;;;;;;5094447;28;20048;-67
2021/12/12 03:42:43;;;;;;;28.60;10.37;;;3.50;99.90;;;;;;5090732;28;20063;-69
2021/12/12 03:45:12;;;;;;;27.37;11.23;;;3.50;99.90;;;;;;5089470;28;20078;-68
2021/12/12 03:47:43;;;;;;;26.40;11.93;;;3.50;99.90;;;;;;5090461;28;20044;-67
2021/12/12 03:50:12;;;;;;;22.07;10.50;;;3.50;99.90;;;;;;5090442;28;20500;-68
2021/12/12 03:52:39;;;;;;;25.77;11.13;;;3.50;99.90;;;;;;5090142;28;20413;-68
2021/12/12 03:55:08;;;;;;;28.63;11.00;;;3.50;99.90;;;;;;5089210;28;20056;-68
2021/12/12 03:57:36;;;;;;;27.20;10.67;;;3.50;99.90;;;;;;5089887;28;20093;-68
2021/12/12 04:00:06;;;;;;;23.87;10.13;;;3.50;99.90;;;;;;5090369;28;20044;-68
2021/12/12 04:02:34;;;;;;;24.13;10.37;;;3.50;99.90;;;;;;5090085;28;20040;-68
2021/12/12 04:05:01;;;;;;;25.00;9.97;;;3.50;99.90;;;;;;5089074;28;20051;-68
2021/12/12 04:07:30;;;;;;;24.67;9.97;;;3.50;99.90;;;;;;5090128;28;20055;-68
2021/12/12 04:09:57;;;;;;;31.43;9.57;;;3.60;99.90;;;;;;5089613;28;20105;-68
2021/12/12 04:12:25;;;;;;;22.57;10.23;;;3.60;99.90;;;;;;5089967;28;20048;-67
2021/12/12 04:14:54;;;;;;;21.10;10.37;;;3.60;99.90;;;;;;5088892;28;20048;-69
2021/12/12 04:17:25;;;;;;;24.43;9.53;;;3.50;99.90;;;;;;5089765;28;20114;-68
2021/12/12 04:19:56;;;;;;;22.93;9.60;;;3.50;99.90;;;;;;5089988;28;20124;-68
2021/12/12 04:22:23;;;;;;;21.37;9.47;;;3.60;99.90;;;;;;5092768;28;20048;-67
2021/12/12 04:24:54;;;;;;;26.63;10.77;;;3.50;99.90;;;;;;5092987;28;20064;-68
2021/12/12 04:27:23;;;;;;;23.33;9.23;;;3.50;99.90;;;;;;5094031;28;20283;-67
2021/12/12 04:29:52;;;;;;;23.80;10.17;;;3.50;99.90;;;;;;5093922;28;20048;-68
2021/12/12 04:32:22;;;;;;;23.87;9.90;;;3.40;99.90;;;;;;5094027;28;20083;-69
2021/12/12 04:34:51;;;;;;;20.40;10.40;;;3.50;99.90;;;;;;5093289;28;20048;-67
2021/12/12 04:37:22;;;;;;;27.27;10.43;;;3.50;99.90;;;;;;5093673;28;20087;-68
2021/12/12 04:39:55;;;;;;;21.27;9.13;;;3.50;99.90;;;;;;5093659;28;20455;-68
2021/12/12 04:42:25;;;;;;;25.37;10.70;;;3.50;99.90;;;;;;5094613;28;20067;-68
2021/12/12 04:44:57;;;;;;;22.20;9.73;;;3.50;99.90;;;;;;5092870;28;20466;-68
2021/12/12 04:50:25;;;;;;;24.20;9.47;;;3.40;99.90;;;;;;5093852;28;20107;-68
2021/12/12 04:53:00;;;;;;;23.87;9.40;;;3.40;99.90;;;;;;5093778;28;20056;-68
2021/12/12 04:55:32;;;;;;;19.83;8.93;;;3.40;99.90;;;;;;5092629;28;20090;-68
2021/12/12 04:58:07;;;;;;;20.30;9.03;;;3.40;99.90;;;;;;5093306;28;20048;-67
2021/12/12 05:00:41;;;;;;;22.53;10.17;;;3.40;99.90;;;;;;5093433;28;20135;-68
2021/12/12 05:03:15;;;;;;;24.43;9.57;;;3.40;99.90;;;;;;5093222;28;20569;-68
2021/12/12 05:05:48;;;;;;;18.93;9.47;;;3.30;99.90;;;;;;5092503;28;20117;-68
2021/12/12 05:08:24;;;;;;;21.83;8.80;;;3.30;99.90;;;;;;5092831;28;20073;-69
2021/12/12 05:10:58;;;;;;;22.40;8.83;;;3.20;99.90;;;;;;5093482;28;20048;-67
2021/12/12 05:13:33;;;;;;;25.13;9.33;;;3.10;99.90;;;;;;5093018;28;20692;-67
2021/12/12 05:16:03;;;;;;;22.23;10.43;;;3.10;99.90;;;;;;5092661;28;20469;-67
2021/12/12 05:18:33;;;;;;;24.37;10.23;;;3.10;99.90;;;;;;5093088;28;20109;-68
2021/12/12 05:21:04;;;;;;;20.93;10.03;;;3.10;99.90;;;;;;5093478;28;20052;-67
2021/12/12 05:23:34;;;;;;;21.80;10.10;;;3.10;99.90;;;;;;5092774;28;20089;-68
2021/12/12 05:26:05;;;;;;;23.57;10.37;;;3.00;99.90;;;;;;5092386;28;20052;-68
2021/12/12 05:28:38;;;;;;;20.43;9.43;;;2.90;99.90;;;;;;5092979;28;20063;-68
2021/12/12 05:31:09;;;;;;;17.80;9.03;;;3.00;99.90;;;;;;5092748;28;20097;-69
2021/12/12 05:33:37;;;;;;;20.83;9.70;;;2.90;99.90;;;;;;5091607;28;20500;-68
2021/12/12 05:36:07;;;;;;;18.97;8.40;;;2.90;99.90;;;;;;5092163;28;20051;-68
2021/12/12 05:38:36;;;;;;;22.97;9.70;;;2.80;99.90;;;;;;5092340;28;20048;-67
2021/12/12 05:41:05;;;;;;;19.47;8.33;;;2.80;99.90;;;;;;5092302;28;20043;-68
2021/12/12 05:43:32;;;;;;;22.13;9.17;;;2.80;99.90;;;;;;5092070;28;20048;-67
2021/12/12 05:46:01;;;;;;;20.47;9.20;;;2.80;99.90;;;;;;5091145;28;20048;-67
2021/12/12 05:48:29;;;;;;;23.37;10.63;;;2.80;99.90;;;;;;5092532;28;20464;-68
2021/12/12 05:50:56;;;;;;;21.27;9.70;;;2.70;99.90;;;;;;5092310;28;20048;-67
2021/12/12 05:53:24;;;;;;;19.17;9.67;;;2.70;99.90;;;;;;5091514;28;20105;-68
2021/12/12 05:55:52;;;;;;;23.93;10.50;;;2.60;99.90;;;;;;5091610;28;20093;-68
2021/12/12 05:58:22;;;;;;;22.40;11.40;;;2.60;99.90;;;;;;5091898;28;20056;-66
2021/12/12 06:00:55;;;;;;;26.03;10.60;;;2.50;99.90;;;;;;5092220;28;20166;-67
2021/12/12 06:03:27;;;;;;;24.83;10.93;;;2.40;99.90;;;;;;5092003;28;20113;-67
2021/12/12 06:05:55;;;;;;;24.83;11.10;;;2.50;99.90;;;;;;5091193;28;20048;-68
2021/12/12 06:08:25;;;;;;;24.83;10.63;;;2.40;99.90;;;;;;5091604;28;20066;-67
2021/12/12 06:10:55;;;;;;;25.13;10.90;;;2.40;99.90;;;;;;5091704;28;20060;-67
2021/12/12 06:13:23;;;;;;;25.97;10.17;;;2.30;99.90;;;;;;5092069;28;20052;-67
2021/12/12 06:15:53;;;;;;;21.60;10.33;;;2.20;99.90;;;;;;5091145;28;20052;-68
2021/12/12 06:18:23;;;;;;;24.80;10.27;;;2.30;99.90;;;;;;5091995;28;20482;-67
2021/12/12 06:20:50;;;;;;;28.53;11.50;;;2.20;99.90;;;;;;5091637;28;20048;-67
2021/12/12 06:23:18;;;;;;;26.93;10.23;;;2.20;99.90;;;;;;5091122;28;20496;-68
2021/12/12 06:25:46;;;;;;;25.67;9.30;;;2.20;99.90;;;;;;5091229;28;20127;-68
2021/12/12 06:28:20;;;;;;;23.50;9.97;;;2.20;99.90;;;;;;5091528;28;20087;-68
2021/12/12 06:30:47;;;;;;;20.30;9.13;;;2.20;99.90;;;;;;5091575;28;20078;-67
2021/12/12 06:33:15;;;;;;;17.27;8.67;;;2.10;99.90;;;;;;5091511;28;20056;-68
2021/12/12 06:35:42;;;;;;;19.77;9.40;;;2.10;99.90;;;;;;5090734;28;20117;-67
2021/12/12 06:38:11;;;;;;;17.83;8.53;;;2.10;99.90;;;;;;5090665;28;20492;-67
2021/12/12 06:40:39;;;;;;;16.60;9.30;;;2.10;99.90;;;;;;5091308;28;20109;-68
2021/12/12 06:43:09;;;;;;;18.70;8.87;;;2.00;99.90;;;;;;5091399;28;20105;-68
2021/12/12 06:45:38;;;;;;;20.17;8.27;;;1.90;99.90;;;;;;5091532;28;20074;-68
2021/12/12 06:48:07;;;;;;;18.50;8.30;;;1.90;99.90;;;;;;5091857;28;20052;-67
2021/12/12 06:50:40;;;;;;;22.90;8.87;;;1.90;99.90;;;;;;5091483;28;20501;-67
2021/12/12 06:53:08;;;;;;;22.63;9.00;;;1.80;99.90;;;;;;5091599;28;20561;-66
2021/12/12 06:55:39;;;;;;;18.53;8.13;;;1.80;99.90;;;;;;5091097;28;20047;-68
2021/12/12 06:58:08;;;;;;;19.53;8.17;;;1.80;99.90;;;;;;5091553;28;20079;-67
2021/12/12 07:00:37;;;;;;;23.67;8.53;;;1.80;99.90;;;;;;5091246;28;20052;-67
2021/12/12 07:03:04;;;;;;;18.67;8.50;;;1.80;99.90;;;;;;5096465;28;20052;-66
2021/12/12 07:05:32;;;;;;;19.43;8.53;;;1.70;99.90;;;;;;5102806;28;20044;-68
2021/12/12 07:08:03;;;;;;;26.60;8.33;;;1.70;99.90;;;;;;5097621;28;20408;-68
2021/12/12 07:10:31;;;;;;;18.50;8.23;;;1.70;99.90;;;;;;5095527;28;20052;-68
2021/12/12 07:12:59;;;;;;;17.13;7.57;;;1.80;99.90;;;;;;5091227;28;20166;-68
2021/12/12 07:15:29;;;;;;;17.47;7.80;;;1.80;99.90;;;;;;5090143;28;20462;-68
2021/12/12 07:18:00;;;;;;;16.73;7.53;;;1.90;99.90;;;;;;5090842;28;20113;-66
2021/12/12 07:20:27;;;;;;;17.87;7.73;;;1.90;99.90;;;;;;5090128;28;20052;-68
2021/12/12 07:22:55;;;;;;;14.30;6.97;;;2.00;99.90;;;;;;5090425;28;20048;-67
2021/12/12 07:25:23;;;;;;;13.63;6.70;;;2.10;99.90;;;;;;5090156;28;20048;-67
2021/12/12 07:27:52;;;;;;;17.40;7.73;;;2.10;99.90;;;;;;5090592;28;20044;-66
2021/12/12 07:30:20;;;;;;;20.43;8.23;;;2.10;99.90;;;;;;5090711;28;20498;-67
2021/12/12 07:32:48;;;;;;;18.20;7.60;;;2.20;99.90;;;;;;5090705;28;20052;-67
2021/12/12 07:35:17;;;;;;;23.97;7.63;;;2.20;99.90;;;;;;5090014;28;20048;-68
2021/12/12 07:37:46;;;;;;;17.50;7.33;;;2.20;99.90;;;;;;5091063;28;20492;-68
2021/12/12 07:40:14;;;;;;;19.10;8.57;;;2.20;99.90;;;;;;5092944;28;20561;-68
2021/12/12 07:42:45;;;;;;;18.90;7.47;;;2.30;99.90;;;;;;5090801;28;20044;-67
2021/12/12 07:45:14;;;;;;;16.70;7.00;;;2.30;99.90;;;;;;5089856;28;20090;-67
2021/12/12 07:47:41;;;;;;;17.60;7.60;;;2.40;99.90;;;;;;5090867;28;20488;-67
2021/12/12 07:50:14;;;;;;;18.57;7.37;;;2.40;99.90;;;;;;5090343;28;20097;-67
2021/12/12 07:52:43;;;;;;;17.00;6.80;;;2.50;99.90;;;;;;5091071;28;20169;-67
2021/12/12 07:55:10;;;;;;;16.80;6.47;;;2.40;99.90;;;;;;5089809;28;20052;-66
2021/12/12 07:57:40;;;;;;;18.27;6.40;;;2.50;99.90;;;;;;5090130;28;20101;-68
2021/12/12 08:00:12;;;;;;;19.77;7.23;;;2.50;99.90;;;;;;5091020;28;20048;-67
2021/12/12 08:02:40;;;;;;;17.47;6.80;;;2.50;99.90;;;;;;5091373;28;20048;-67
2021/12/12 08:05:08;;;;;;;16.70;6.50;;;2.50;99.90;;;;;;5090795;28;20094;-66
2021/12/12 08:07:36;;;;;;;16.23;6.67;;;2.50;99.90;;;;;;5091900;28;20113;-66
2021/12/12 08:10:09;;;;;;;18.13;7.70;;;2.50;99.90;;;;;;5091522;28;20097;-66
2021/12/12 08:12:37;;;;;;;17.17;6.67;;;2.50;99.90;;;;;;5091432;28;20530;-67
2021/12/12 08:15:07;;;;;;;19.63;6.73;;;2.60;99.90;;;;;;5090661;28;20562;-67
2021/12/12 08:17:34;;;;;;;18.03;6.37;;;2.70;99.90;;;;;;5092194;28;20056;-66
2021/12/12 08:20:04;;;;;;;13.57;6.03;;;2.70;99.90;;;;;;5091615;28;20048;-68
2021/12/12 08:22:32;;;;;;;13.80;5.50;;;2.60;99.90;;;;;;5092125;28;20044;-66
2021/12/12 08:25:01;;;;;;;15.80;5.97;;;2.60;99.90;;;;;;5091386;28;20048;-67
2021/12/12 08:27:30;;;;;;;15.63;5.77;;;2.60;99.90;;;;;;5091608;28;20500;-68
2021/12/12 08:29:59;;;;;;;13.57;5.70;;;2.70;99.90;;;;;;5092003;28;20044;-68
2021/12/12 08:32:28;;;;;;;13.53;5.27;;;2.90;99.90;;;;;;5090225;28;20230;-67
2021/12/12 08:34:55;;;;;;;14.37;6.43;;;3.00;99.90;;;;;;5089425;28;20480;-67
2021/12/12 08:37:22;;;;;;;14.27;5.80;;;2.90;99.90;;;;;;5090173;28;20097;-69
2021/12/12 08:39:49;;;;;;;19.17;5.53;;;3.00;99.90;;;;;;5091925;28;20091;-68
2021/12/12 08:42:16;;;;;;;13.87;5.67;;;3.10;99.90;;;;;;5090545;28;20499;-68
2021/12/12 08:44:45;;;;;;;19.50;6.17;;;3.30;99.90;;;;;;5089643;28;20052;-66
2021/12/12 08:47:13;;;;;;;14.90;6.20;;;3.50;99.90;;;;;;5090011;28;20490;-67
2021/12/12 08:49:43;;;;;;;14.00;5.60;;;3.70;99.90;;;;;;5089862;28;20407;-66
2021/12/12 08:52:13;;;;;;;16.97;5.73;;;3.70;99.90;;;;;;5090502;28;20056;-68
2021/12/12 08:54:43;;;;;;;14.53;6.20;;;4.10;99.90;;;;;;5090166;28;20457;-66
2021/12/12 08:57:20;;;;;;;13.03;5.33;;;4.30;99.90;;;;;;5090193;28;20291;-67
2021/12/12 08:59:49;;;;;;;15.77;6.03;;;4.00;99.90;;;;;;5090546;28;20062;-67
2021/12/12 09:02:19;;;;;;;13.60;5.40;;;4.10;99.90;;;;;;5090055;28;20128;-67
2021/12/12 09:04:50;;;;;;;12.70;5.43;;;3.90;99.90;;;;;;5088889;28;20110;-68
2021/12/12 09:07:21;;;;;;;12.70;4.17;;;3.90;99.90;;;;;;5089593;28;20484;-68
2021/12/12 09:09:53;;;;;;;14.63;4.50;;;4.00;99.90;;;;;;5092737;28;20055;-67
2021/12/12 09:12:25;;;;;;;11.27;4.30;;;4.10;99.90;;;;;;5093225;28;20573;-67
2021/12/12 09:14:58;;;;;;;17.37;5.40;;;3.80;99.90;;;;;;5092157;28;20097;-66
2021/12/12 09:17:30;;;;;;;12.33;4.57;;;3.80;99.90;;;;;;5093119;28;20052;-67
2021/12/12 09:20:03;;;;;;;12.17;4.17;;;3.60;99.90;;;;;;5093354;28;20056;-67
2021/12/12 09:22:34;;;;;;;11.30;4.03;;;3.70;99.90;;;;;;5108556;22;20050;-68
2021/12/12 09:25:06;;;;;;;11.27;4.17;;;3.80;99.90;;;;;;5093374;28;20076;-68
2021/12/12 09:27:38;;;;;;;12.23;4.33;;;4.00;99.90;;;;;;5095680;28;20475;-68
2021/12/12 09:30:10;;;;;;;13.53;4.30;;;4.00;99.90;;;;;;5094871;28;20095;-68
2021/12/12 09:32:42;;;;;;;7.13;3.37;;;4.00;99.90;;;;;;5093655;28;20094;-68
2021/12/12 09:35:14;;;;;;;8.67;3.57;;;4.20;99.90;;;;;;5094633;28;20048;-68
2021/12/12 09:37:45;;;;;;;13.07;3.77;;;4.20;99.90;;;;;;5095351;28;20089;-68
2021/12/12 09:40:23;;;;;;;12.17;4.70;;;4.30;99.90;;;;;;5095089;28;20105;-68
2021/12/12 09:43:03;;;;;;;9.70;4.18;;;4.30;99.90;;;;;;5095291;28;20071;-68
2021/12/12 09:45:47;;;;;;;11.23;4.10;;;4.60;99.90;;;;;;5095435;28;20465;-68
2021/12/12 09:52:09;;;;;;;12.13;3.67;;;4.60;99.90;;;;;;5092663;28;20058;-68
2021/12/12 09:54:46;;;;;;;13.70;3.85;;;4.50;99.90;;;;;;5092492;28;20044;-68
2021/12/12 09:57:16;;;;;;;12.38;4.80;;;4.50;99.90;;;;;;5093923;28;20052;-68
2021/12/12 10:00:02;;;;;;;10.27;3.28;;;4.50;99.90;;;;;;5110344;28;20443;-69
2021/12/12 10:02:43;;;;;;;11.10;3.53;;;4.50;99.90;;;;;;5100002;28;20044;-68
2021/12/12 10:05:20;;;;;;;10.20;3.03;;;4.30;99.90;;;;;;5091137;28;20079;-68
2021/12/12 10:07:59;;;;;;;11.40;3.25;;;4.30;99.90;;;;;;5091800;28;20048;-69
2021/12/12 10:10:30;;;;;;;13.07;3.83;;;4.40;99.90;;;;;;5091832;28;20048;-69
2021/12/12 10:13:03;;;;;;;12.70;3.35;;;4.80;99.90;;;;;;5091603;28;20053;-69
2021/12/12 10:15:34;;;;;;;12.00;3.10;;;5.20;99.90;;;;;;5090766;28;20105;-69
2021/12/12 10:18:09;;;;;;;10.95;3.83;;;5.00;99.90;;;;;;5091837;28;20518;-69
2021/12/12 10:20:41;;;;;;;7.18;3.50;;;5.10;99.90;;;;;;5091668;28;20100;-69
2021/12/12 10:23:17;;;;;;;12.02;3.03;;;5.10;99.90;;;;;;5091768;28;20048;-69
2021/12/12 10:25:53;;;;;;;11.60;3.65;;;5.30;99.90;;;;;;5091352;28;20125;-69
2021/12/12 10:28:23;;;;;;;7.25;2.70;;;5.20;99.90;;;;;;5091774;28;20059;-69
2021/12/12 10:30:57;;;;;;;9.13;2.70;;;5.50;99.90;;;;;;5092805;28;20109;-69
2021/12/12 10:33:33;;;;;;;5.75;2.47;;;5.80;99.90;;;;;;5093515;28;20131;-69
2021/12/12 10:36:05;;;;;;;8.95;4.13;;;5.60;99.90;;;;;;5092616;28;20044;-69
2021/12/12 10:38:38;;;;;;;9.90;3.25;;;5.40;99.90;;;;;;5093018;28;20059;-68
2021/12/12 10:41:10;;;;;;;12.15;3.13;;;5.20;99.90;;;;;;5091760;28;20047;-69
2021/12/12 10:43:41;;;;;;;10.52;2.88;;;5.30;99.90;;;;;;5091873;28;20052;-69
2021/12/12 10:46:12;;;;;;;8.35;3.03;;;5.20;99.90;;;;;;5101278;28;20120;-69
2021/12/12 10:48:56;;;;;;;10.35;3.03;;;5.30;99.90;;;;;;5096834;28;20504;-69
2021/12/12 10:51:25;;;;;;;8.55;2.78;;;5.80;99.90;;;;;;5098233;28;20055;-68
2021/12/12 10:54:05;;;;;;;9.40;2.50;;;6.50;99.90;;;;;;5091715;28;20052;-69
2021/12/12 10:56:39;;;;;;;11.93;2.60;;;6.60;99.90;;;;;;5090683;28;20048;-69
2021/12/12 10:59:19;;;;;;;9.23;3.08;;;6.40;99.90;;;;;;5091602;28;20093;-69
2021/12/12 11:01:49;;;;;;;13.70;3.10;;;6.50;99.90;;;;;;5090573;28;20519;-69
2021/12/12 11:04:22;;;;;;;12.13;3.75;;;6.20;99.90;;;;;;5090546;28;20393;-69
2021/12/12 11:06:56;;;;;;;8.77;2.65;;;5.90;99.90;;;;;;5089605;28;20117;-68
2021/12/12 11:09:29;;;;;;;6.57;2.42;;;5.70;99.90;;;;;;5090620;28;20044;-69
2021/12/12 11:12:07;;;;;;;9.15;2.60;;;5.50;99.90;;;;;;5090434;28;20056;-69
2021/12/12 11:14:37;;;;;;;6.45;3.10;;;5.40;99.90;;;;;;5090606;28;20052;-69
2021/12/12 11:17:10;;;;;;;7.68;3.13;;;5.20;99.90;;;;;;5089554;28;20044;-70
2021/12/12 11:19:43;;;;;;;9.25;3.17;;;5.40;99.90;;;;;;5090527;28;20549;-69
2021/12/12 11:22:16;;;;;;;9.68;3.30;;;5.20;99.90;;;;;;5090341;28;20105;-69
2021/12/12 11:24:46;;;;;;;9.07;2.88;;;5.20;99.90;;;;;;5089691;28;20073;-69
2021/12/12 11:27:17;;;;;;;9.25;3.10;;;5.20;99.90;;;;;;5090107;28;20090;-69
2021/12/12 11:29:49;;;;;;;8.30;2.58;;;5.20;99.90;;;;;;5090033;28;20116;-69
2021/12/12 11:32:21;;;;;;;9.63;3.22;;;5.20;99.90;;;;;;5089446;28;20105;-69
2021/12/12 11:34:52;;;;;;;11.50;2.63;;;5.20;99.90;;;;;;5089182;28;20569;-69
2021/12/12 11:37:26;;;;;;;10.27;2.53;;;5.30;99.90;;;;;;5090036;28;20047;-69
2021/12/12 11:39:58;;;;;;;7.28;2.70;;;5.10;99.90;;;;;;5080148;28;20102;-69
2021/12/12 11:42:38;;;;;;;13.60;3.28;;;5.10;99.90;;;;;;5077202;28;20059;-69
2021/12/12 11:45:11;;;;;;;7.88;3.08;;;5.30;99.90;;;;;;5081733;28;20048;-69
2021/12/12 11:47:54;;;;;;;7.13;2.60;;;5.40;99.90;;;;;;5089562;28;20080;-68
2021/12/12 11:50:33;;;;;;;8.40;3.15;;;5.50;99.90;;;;;;5089183;28;20052;-69
2021/12/12 11:53:06;;;;;;;8.10;2.50;;;5.60;99.90;;;;;;5064161;28;20545;-69
2021/12/12 11:55:38;;;;;;;12.57;3.20;;;5.60;99.90;;;;;;5088528;28;20048;-69
2021/12/12 11:58:13;;;;;;;11.07;2.97;;;5.60;99.90;;;;;;5089588;28;20114;-69
2021/12/12 12:00:47;;;;;;;8.98;3.28;;;5.60;99.90;;;;;;5089520;28;20056;-69
2021/12/12 12:03:24;;;;;;;9.10;3.00;;;5.60;99.90;;;;;;5088572;28;20063;-69
2021/12/12 12:06:09;;;;;;;11.57;3.13;;;5.40;99.90;;;;;;5088399;28;20056;-68
2021/12/12 12:08:46;;;;;;;10.25;3.33;;;5.40;99.90;;;;;;5089811;28;20098;-69
2021/12/12 12:11:27;;;;;;;9.77;3.33;;;5.30;99.90;;;;;;5089076;28;20523;-69
2021/12/12 12:13:57;;;;;;;7.55;2.72;;;5.20;99.90;;;;;;5088843;28;20542;-68
2021/12/12 12:16:36;;;;;;;6.88;3.05;;;5.40;99.90;;;;;;5088124;28;20109;-69
2021/12/12 12:19:13;;;;;;;9.05;3.67;;;5.40;99.90;;;;;;5089316;28;20462;-69
2021/12/12 12:21:54;;;;;;;8.60;3.30;;;5.50;99.90;;;;;;5088736;28;20116;-69
2021/12/12 12:24:37;;;;;;;8.82;3.20;;;5.80;99.90;;;;;;5088707;28;20097;-68
2021/12/12 12:27:07;;;;;;;9.90;3.67;;;5.80;99.90;;;;;;5088238;28;20488;-68
2021/12/12 12:30:15;;;;;;;9.90;2.83;;;5.60;99.90;;;;;;5088846;28;20495;-68
2021/12/12 12:33:28;;;;;;;10.57;2.95;;;5.70;99.90;;;;;;5049798;28;20047;-68
2021/12/12 12:36:36;;;;;;;6.07;2.90;;;5.60;99.90;;;;;;5088120;28;20097;-68
2021/12/12 12:39:43;;;;;;;10.93;3.30;;;5.60;99.90;;;;;;5028170;28;20105;-68
2021/12/12 12:42:49;;;;;;;9.32;3.20;;;5.70;99.90;;;;;;5092461;28;20230;-68
2021/12/12 12:45:55;;;;;;;7.97;3.10;;;5.60;99.90;;;;;;5091774;28;20048;-68
2021/12/12 12:49:19;;;;;;;6.13;2.70;;;5.50;99.90;;;;;;5093259;28;20060;-68
2021/12/12 12:52:29;;;;;;;8.82;3.33;;;5.60;99.90;;;;;;4976182;28;20090;-68
2021/12/12 12:55:42;;;;;;;6.70;3.30;;;5.50;99.90;;;;;;5091417;28;20070;-68
2021/12/12 12:58:19;;;;;;;8.68;2.88;;;5.30;99.90;;;;;;5092290;28;20101;-68
2021/12/12 13:00:49;;;;;;;8.85;3.20;;;5.10;99.90;;;;;;5092393;28;20048;-68
2021/12/12 13:03:28;;;;;;;10.07;3.83;;;5.10;99.90;;;;;;5092040;28;20044;-68
2021/12/12 13:06:19;;;;;;;10.40;3.70;;;5.10;99.90;;;;;;5091619;28;20048;-68
2021/12/12 13:09:21;;;;;;;9.30;3.38;;;5.20;99.90;;;;;;5053704;28;20512;-68
2021/12/12 13:12:37;;;;;;;7.20;2.97;;;5.20;99.90;;;;;;5093865;28;20258;-68
2021/12/12 13:15:11;;;;;;;13.52;3.40;;;5.20;99.90;;;;;;5031554;28;20054;-68
2021/12/12 13:17:56;;;;;;;8.02;2.88;;;5.20;99.90;;;;;;5082676;28;20048;-68
2021/12/12 13:20:33;;;;;;;11.80;4.07;;;5.20;99.90;;;;;;5092352;28;20087;-68
2021/12/12 13:23:17;;;;;;;8.85;3.55;;;5.20;99.90;;;;;;5091651;28;20453;-68
2021/12/12 13:25:54;;;;;;;10.52;3.45;;;5.20;99.90;;;;;;5091102;28;20415;-68
2021/12/12 13:28:31;;;;;;;9.40;3.08;;;5.20;99.90;;;;;;5091820;28;20062;-68
2021/12/12 13:31:01;;;;;;;7.80;3.17;;;5.10;99.90;;;;;;5092271;28;20052;-68
2021/12/12 13:33:35;;;;;;;8.43;3.65;;;5.10;99.90;;;;;;5092562;28;20055;-68